sensor_id;sensor_type;location;lat;lon;timestamp;P1;durP1;ratioP1;P2;durP2;ratioP2
11125;SDS011;5617;54.046;10.676;2023-05-16T00:01:19;4.83;;;4.27;;
11125;SDS011;5617;54.046;10.676;2023-05-16T00:03:27;5.87;;;4.30;;
11125;SDS011;5617;54.046;10.676;2023-05-16T00:05:35;4.67;;;4.27;;
11125;SDS011;5617;54.046;10.676;2023-05-16T00:07:44;4.50;;;4.03;;
11125;SDS011;5617;54.046;10.676;2023-05-16T00:09:56;4.40;;;3.80;;
11125;SDS011;5617;54.046;10.676;2023-05-16T00:12:05;4.53;;;4.13;;
11125;SDS011;5617;54.046;10.676;2023-05-16T00:14:13;4.20;;;3.80;;
11125;SDS011;5617;54.046;10.676;2023-05-16T00:16:21;5.67;;;4.40;;
11125;SDS011;5617;54.046;10.676;2023-05-16T00:18:31;3.97;;;3.60;;
11125;SDS011;5617;54.046;10.676;2023-05-16T00:20:42;4.43;;;4.00;;
11125;SDS011;5617;54.046;10.676;2023-05-16T00:22:50;5.27;;;3.90;;
11125;SDS011;5617;54.046;10.676;2023-05-16T00:24:58;5.07;;;3.40;;
11125;SDS011;5617;54.046;10.676;2023-05-16T00:27:07;5.40;;;3.97;;
11125;SDS011;5617;54.046;10.676;2023-05-16T00:29:14;5.33;;;3.50;;
11125;SDS011;5617;54.046;10.676;2023-05-16T00:31:22;4.07;;;3.23;;
11125;SDS011;5617;54.046;10.676;2023-05-16T00:33:30;3.90;;;3.50;;
11125;SDS011;5617;54.046;10.676;2023-05-16T00:35:37;5.73;;;3.50;;
11125;SDS011;5617;54.046;10.676;2023-05-16T00:37:45;3.77;;;3.13;;
11125;SDS011;5617;54.046;10.676;2023-05-16T00:39:52;5.50;;;3.63;;
11125;SDS011;5617;54.046;10.676;2023-05-16T00:42:00;3.80;;;3.40;;
11125;SDS011;5617;54.046;10.676;2023-05-16T00:44:09;4.03;;;3.37;;
11125;SDS011;5617;54.046;10.676;2023-05-16T00:46:17;4.90;;;3.27;;
11125;SDS011;5617;54.046;10.676;2023-05-16T00:48:25;4.67;;;3.13;;
11125;SDS011;5617;54.046;10.676;2023-05-16T00:50:33;4.57;;;3.37;;
11125;SDS011;5617;54.046;10.676;2023-05-16T00:52:42;3.87;;;3.50;;
11125;SDS011;5617;54.046;10.676;2023-05-16T00:54:50;4.73;;;3.40;;
11125;SDS011;5617;54.046;10.676;2023-05-16T00:56:58;3.47;;;3.17;;
11125;SDS011;5617;54.046;10.676;2023-05-16T00:59:06;3.57;;;3.00;;
11125;SDS011;5617;54.046;10.676;2023-05-16T01:01:14;5.30;;;3.57;;
11125;SDS011;5617;54.046;10.676;2023-05-16T01:03:23;3.50;;;3.20;;
11125;SDS011;5617;54.046;10.676;2023-05-16T01:05:32;3.67;;;3.37;;
11125;SDS011;5617;54.046;10.676;2023-05-16T01:07:40;3.70;;;3.33;;
11125;SDS011;5617;54.046;10.676;2023-05-16T01:09:48;3.00;;;2.80;;
11125;SDS011;5617;54.046;10.676;2023-05-16T01:12:04;3.20;;;2.90;;
11125;SDS011;5617;54.046;10.676;2023-05-16T01:14:18;4.43;;;3.60;;
11125;SDS011;5617;54.046;10.676;2023-05-16T01:16:38;4.00;;;3.40;;
11125;SDS011;5617;54.046;10.676;2023-05-16T01:18:53;3.23;;;2.77;;
11125;SDS011;5617;54.046;10.676;2023-05-16T01:21:14;2.63;;;2.43;;
11125;SDS011;5617;54.046;10.676;2023-05-16T01:23:33;3.00;;;2.70;;
11125;SDS011;5617;54.046;10.676;2023-05-16T01:25:55;4.20;;;2.90;;
11125;SDS011;5617;54.046;10.676;2023-05-16T01:28:10;3.17;;;2.90;;
11125;SDS011;5617;54.046;10.676;2023-05-16T01:30:19;3.53;;;3.10;;
11125;SDS011;5617;54.046;10.676;2023-05-16T01:32:27;2.80;;;2.60;;
11125;SDS011;5617;54.046;10.676;2023-05-16T01:34:35;4.07;;;2.90;;
11125;SDS011;5617;54.046;10.676;2023-05-16T01:36:43;3.40;;;2.67;;
11125;SDS011;5617;54.046;10.676;2023-05-16T01:39:02;2.97;;;2.70;;
11125;SDS011;5617;54.046;10.676;2023-05-16T01:41:14;2.70;;;2.50;;
11125;SDS011;5617;54.046;10.676;2023-05-16T01:43:32;2.83;;;2.53;;
11125;SDS011;5617;54.046;10.676;2023-05-16T01:45:42;4.20;;;2.57;;
11125;SDS011;5617;54.046;10.676;2023-05-16T01:47:54;2.93;;;2.20;;
11125;SDS011;5617;54.046;10.676;2023-05-16T01:50:07;3.30;;;2.77;;
11125;SDS011;5617;54.046;10.676;2023-05-16T01:52:19;4.00;;;2.10;;
11125;SDS011;5617;54.046;10.676;2023-05-16T01:54:30;2.23;;;1.87;;
11125;SDS011;5617;54.046;10.676;2023-05-16T01:59:58;3.20;;;2.40;;
11125;SDS011;5617;54.046;10.676;2023-05-16T02:02:06;3.80;;;2.37;;
11125;SDS011;5617;54.046;10.676;2023-05-16T02:04:13;5.07;;;2.83;;
11125;SDS011;5617;54.046;10.676;2023-05-16T02:06:22;3.37;;;2.60;;
11125;SDS011;5617;54.046;10.676;2023-05-16T02:08:30;4.60;;;2.43;;
11125;SDS011;5617;54.046;10.676;2023-05-16T02:10:38;2.20;;;2.00;;
11125;SDS011;5617;54.046;10.676;2023-05-16T02:12:46;2.47;;;2.27;;
11125;SDS011;5617;54.046;10.676;2023-05-16T02:14:53;3.40;;;2.30;;
11125;SDS011;5617;54.046;10.676;2023-05-16T02:17:02;3.17;;;2.30;;
11125;SDS011;5617;54.046;10.676;2023-05-16T02:19:10;4.03;;;2.50;;
11125;SDS011;5617;54.046;10.676;2023-05-16T02:21:18;4.20;;;2.70;;
11125;SDS011;5617;54.046;10.676;2023-05-16T02:23:25;3.97;;;2.70;;
11125;SDS011;5617;54.046;10.676;2023-05-16T02:25:33;3.67;;;2.43;;
11125;SDS011;5617;54.046;10.676;2023-05-16T02:27:40;2.93;;;2.53;;
11125;SDS011;5617;54.046;10.676;2023-05-16T02:29:48;3.10;;;2.60;;
11125;SDS011;5617;54.046;10.676;2023-05-16T02:31:56;5.47;;;2.50;;
11125;SDS011;5617;54.046;10.676;2023-05-16T02:34:05;2.47;;;2.27;;
11125;SDS011;5617;54.046;10.676;2023-05-16T02:36:12;3.17;;;2.37;;
11125;SDS011;5617;54.046;10.676;2023-05-16T02:38:21;6.47;;;2.60;;
11125;SDS011;5617;54.046;10.676;2023-05-16T02:40:28;5.13;;;2.57;;
11125;SDS011;5617;54.046;10.676;2023-05-16T02:42:36;3.13;;;2.40;;
11125;SDS011;5617;54.046;10.676;2023-05-16T02:44:44;2.67;;;2.30;;
11125;SDS011;5617;54.046;10.676;2023-05-16T02:46:51;3.13;;;2.50;;
11125;SDS011;5617;54.046;10.676;2023-05-16T02:48:59;2.93;;;2.03;;
11125;SDS011;5617;54.046;10.676;2023-05-16T02:51:09;2.67;;;1.87;;
11125;SDS011;5617;54.046;10.676;2023-05-16T02:53:17;4.43;;;1.87;;
11125;SDS011;5617;54.046;10.676;2023-05-16T02:55:24;3.30;;;1.73;;
11125;SDS011;5617;54.046;10.676;2023-05-16T02:57:32;4.57;;;2.00;;
11125;SDS011;5617;54.046;10.676;2023-05-16T02:59:40;3.67;;;1.87;;
11125;SDS011;5617;54.046;10.676;2023-05-16T03:01:47;4.00;;;1.50;;
11125;SDS011;5617;54.046;10.676;2023-05-16T03:03:55;4.10;;;1.60;;
11125;SDS011;5617;54.046;10.676;2023-05-16T03:06:03;4.67;;;1.70;;
11125;SDS011;5617;54.046;10.676;2023-05-16T03:08:12;5.37;;;1.80;;
11125;SDS011;5617;54.046;10.676;2023-05-16T03:10:20;6.27;;;1.60;;
11125;SDS011;5617;54.046;10.676;2023-05-16T03:12:28;4.43;;;1.47;;
11125;SDS011;5617;54.046;10.676;2023-05-16T03:14:35;4.77;;;1.33;;
11125;SDS011;5617;54.046;10.676;2023-05-16T03:16:43;3.20;;;1.20;;
11125;SDS011;5617;54.046;10.676;2023-05-16T03:18:51;7.70;;;2.03;;
11125;SDS011;5617;54.046;10.676;2023-05-16T03:20:59;5.50;;;1.57;;
11125;SDS011;5617;54.046;10.676;2023-05-16T03:23:08;5.27;;;1.60;;
11125;SDS011;5617;54.046;10.676;2023-05-16T03:25:17;5.67;;;1.87;;
11125;SDS011;5617;54.046;10.676;2023-05-16T03:27:25;5.83;;;1.70;;
11125;SDS011;5617;54.046;10.676;2023-05-16T03:29:33;6.30;;;1.60;;
11125;SDS011;5617;54.046;10.676;2023-05-16T03:31:41;4.13;;;1.40;;
11125;SDS011;5617;54.046;10.676;2023-05-16T03:33:48;3.63;;;1.67;;
11125;SDS011;5617;54.046;10.676;2023-05-16T03:35:56;5.13;;;1.40;;
11125;SDS011;5617;54.046;10.676;2023-05-16T03:38:04;3.93;;;1.47;;
11125;SDS011;5617;54.046;10.676;2023-05-16T03:40:11;4.10;;;1.53;;
11125;SDS011;5617;54.046;10.676;2023-05-16T03:42:20;4.60;;;1.50;;
11125;SDS011;5617;54.046;10.676;2023-05-16T03:44:28;3.33;;;1.70;;
11125;SDS011;5617;54.046;10.676;2023-05-16T03:46:36;9.17;;;1.80;;
11125;SDS011;5617;54.046;10.676;2023-05-16T03:48:43;4.10;;;1.57;;
11125;SDS011;5617;54.046;10.676;2023-05-16T03:50:51;6.03;;;1.87;;
11125;SDS011;5617;54.046;10.676;2023-05-16T03:52:59;6.73;;;1.60;;
11125;SDS011;5617;54.046;10.676;2023-05-16T03:55:07;5.07;;;1.80;;
11125;SDS011;5617;54.046;10.676;2023-05-16T03:57:14;8.40;;;1.80;;
11125;SDS011;5617;54.046;10.676;2023-05-16T03:59:23;8.87;;;1.90;;
11125;SDS011;5617;54.046;10.676;2023-05-16T04:01:31;8.03;;;1.60;;
11125;SDS011;5617;54.046;10.676;2023-05-16T04:03:39;9.37;;;2.30;;
11125;SDS011;5617;54.046;10.676;2023-05-16T04:05:46;5.80;;;1.87;;
11125;SDS011;5617;54.046;10.676;2023-05-16T04:07:54;9.40;;;1.70;;
11125;SDS011;5617;54.046;10.676;2023-05-16T04:10:02;6.43;;;1.73;;
11125;SDS011;5617;54.046;10.676;2023-05-16T04:12:11;5.57;;;1.80;;
11125;SDS011;5617;54.046;10.676;2023-05-16T04:14:18;6.57;;;1.70;;
11125;SDS011;5617;54.046;10.676;2023-05-16T04:16:27;6.23;;;1.93;;
11125;SDS011;5617;54.046;10.676;2023-05-16T04:18:35;7.03;;;2.03;;
11125;SDS011;5617;54.046;10.676;2023-05-16T04:20:42;7.50;;;1.83;;
11125;SDS011;5617;54.046;10.676;2023-05-16T04:22:52;5.90;;;1.70;;
11125;SDS011;5617;54.046;10.676;2023-05-16T04:25:00;6.60;;;1.80;;
11125;SDS011;5617;54.046;10.676;2023-05-16T04:27:07;7.20;;;1.57;;
11125;SDS011;5617;54.046;10.676;2023-05-16T04:29:15;7.03;;;1.80;;
11125;SDS011;5617;54.046;10.676;2023-05-16T04:31:23;6.93;;;1.63;;
11125;SDS011;5617;54.046;10.676;2023-05-16T04:33:33;7.30;;;2.00;;
11125;SDS011;5617;54.046;10.676;2023-05-16T04:35:40;6.23;;;1.50;;
11125;SDS011;5617;54.046;10.676;2023-05-16T04:37:48;8.10;;;1.90;;
11125;SDS011;5617;54.046;10.676;2023-05-16T04:39:56;7.17;;;1.60;;
11125;SDS011;5617;54.046;10.676;2023-05-16T04:42:04;4.60;;;1.43;;
11125;SDS011;5617;54.046;10.676;2023-05-16T04:44:12;6.80;;;1.50;;
11125;SDS011;5617;54.046;10.676;2023-05-16T04:46:20;5.30;;;1.50;;
11125;SDS011;5617;54.046;10.676;2023-05-16T04:48:27;8.57;;;1.87;;
11125;SDS011;5617;54.046;10.676;2023-05-16T04:50:37;9.00;;;1.80;;
11125;SDS011;5617;54.046;10.676;2023-05-16T04:52:44;7.80;;;1.73;;
11125;SDS011;5617;54.046;10.676;2023-05-16T04:54:52;9.63;;;2.00;;
11125;SDS011;5617;54.046;10.676;2023-05-16T04:57:00;6.57;;;2.00;;
11125;SDS011;5617;54.046;10.676;2023-05-16T04:59:07;5.73;;;1.70;;
11125;SDS011;5617;54.046;10.676;2023-05-16T05:01:15;11.33;;;1.97;;
11125;SDS011;5617;54.046;10.676;2023-05-16T05:03:22;8.13;;;1.93;;
11125;SDS011;5617;54.046;10.676;2023-05-16T05:05:30;8.50;;;3.20;;
11125;SDS011;5617;54.046;10.676;2023-05-16T05:07:40;5.93;;;1.50;;
11125;SDS011;5617;54.046;10.676;2023-05-16T05:09:47;9.50;;;1.93;;
11125;SDS011;5617;54.046;10.676;2023-05-16T05:11:56;6.23;;;2.10;;
11125;SDS011;5617;54.046;10.676;2023-05-16T05:14:04;7.53;;;1.63;;
11125;SDS011;5617;54.046;10.676;2023-05-16T05:16:12;6.10;;;1.57;;
11125;SDS011;5617;54.046;10.676;2023-05-16T05:18:19;6.57;;;1.87;;
11125;SDS011;5617;54.046;10.676;2023-05-16T05:20:27;8.57;;;2.20;;
11125;SDS011;5617;54.046;10.676;2023-05-16T05:22:35;5.83;;;1.60;;
11125;SDS011;5617;54.046;10.676;2023-05-16T05:24:44;7.20;;;1.53;;
11125;SDS011;5617;54.046;10.676;2023-05-16T05:26:52;6.33;;;1.73;;
11125;SDS011;5617;54.046;10.676;2023-05-16T05:28:59;6.27;;;1.90;;
11125;SDS011;5617;54.046;10.676;2023-05-16T05:31:11;11.50;;;1.77;;
11125;SDS011;5617;54.046;10.676;2023-05-16T05:33:18;9.10;;;2.13;;
11125;SDS011;5617;54.046;10.676;2023-05-16T05:35:31;5.47;;;1.60;;
11125;SDS011;5617;54.046;10.676;2023-05-16T05:37:39;8.93;;;1.93;;
11125;SDS011;5617;54.046;10.676;2023-05-16T05:39:48;8.43;;;1.93;;
11125;SDS011;5617;54.046;10.676;2023-05-16T05:41:56;7.93;;;1.70;;
11125;SDS011;5617;54.046;10.676;2023-05-16T05:44:04;6.40;;;1.27;;
11125;SDS011;5617;54.046;10.676;2023-05-16T05:46:12;7.17;;;2.07;;
11125;SDS011;5617;54.046;10.676;2023-05-16T05:48:20;8.03;;;1.80;;
11125;SDS011;5617;54.046;10.676;2023-05-16T05:50:28;8.07;;;1.73;;
11125;SDS011;5617;54.046;10.676;2023-05-16T05:52:36;9.80;;;1.83;;
11125;SDS011;5617;54.046;10.676;2023-05-16T05:54:44;7.50;;;1.90;;
11125;SDS011;5617;54.046;10.676;2023-05-16T05:56:53;6.50;;;1.83;;
11125;SDS011;5617;54.046;10.676;2023-05-16T05:59:00;5.13;;;1.30;;
11125;SDS011;5617;54.046;10.676;2023-05-16T06:01:09;5.77;;;1.50;;
11125;SDS011;5617;54.046;10.676;2023-05-16T06:03:17;7.33;;;1.60;;
11125;SDS011;5617;54.046;10.676;2023-05-16T06:05:26;7.10;;;1.50;;
11125;SDS011;5617;54.046;10.676;2023-05-16T06:07:34;9.93;;;1.50;;
11125;SDS011;5617;54.046;10.676;2023-05-16T06:09:43;5.40;;;1.20;;
11125;SDS011;5617;54.046;10.676;2023-05-16T06:11:51;7.33;;;1.80;;
11125;SDS011;5617;54.046;10.676;2023-05-16T06:13:59;4.93;;;1.50;;
11125;SDS011;5617;54.046;10.676;2023-05-16T06:16:07;5.27;;;1.30;;
11125;SDS011;5617;54.046;10.676;2023-05-16T06:18:15;5.37;;;1.73;;
11125;SDS011;5617;54.046;10.676;2023-05-16T06:20:22;5.43;;;1.30;;
11125;SDS011;5617;54.046;10.676;2023-05-16T06:22:30;6.97;;;1.47;;
11125;SDS011;5617;54.046;10.676;2023-05-16T06:24:38;7.77;;;1.57;;
11125;SDS011;5617;54.046;10.676;2023-05-16T06:26:45;4.83;;;1.10;;
11125;SDS011;5617;54.046;10.676;2023-05-16T06:28:55;5.90;;;1.30;;
11125;SDS011;5617;54.046;10.676;2023-05-16T06:31:04;5.80;;;1.50;;
11125;SDS011;5617;54.046;10.676;2023-05-16T06:33:12;5.97;;;1.10;;
11125;SDS011;5617;54.046;10.676;2023-05-16T06:35:20;4.77;;;1.30;;
11125;SDS011;5617;54.046;10.676;2023-05-16T06:37:28;5.17;;;1.10;;
11125;SDS011;5617;54.046;10.676;2023-05-16T06:39:36;5.23;;;1.17;;
11125;SDS011;5617;54.046;10.676;2023-05-16T06:41:44;5.13;;;1.13;;
11125;SDS011;5617;54.046;10.676;2023-05-16T06:43:51;5.57;;;1.33;;
11125;SDS011;5617;54.046;10.676;2023-05-16T06:45:59;3.90;;;1.10;;
11125;SDS011;5617;54.046;10.676;2023-05-16T06:48:08;4.73;;;1.20;;
11125;SDS011;5617;54.046;10.676;2023-05-16T06:50:16;4.07;;;1.20;;
11125;SDS011;5617;54.046;10.676;2023-05-16T06:52:24;4.37;;;1.63;;
11125;SDS011;5617;54.046;10.676;2023-05-16T06:54:32;5.43;;;1.10;;
11125;SDS011;5617;54.046;10.676;2023-05-16T06:56:40;5.43;;;1.20;;
11125;SDS011;5617;54.046;10.676;2023-05-16T06:58:48;7.40;;;1.30;;
11125;SDS011;5617;54.046;10.676;2023-05-16T07:00:55;6.30;;;1.47;;
11125;SDS011;5617;54.046;10.676;2023-05-16T07:03:03;5.03;;;1.33;;
11125;SDS011;5617;54.046;10.676;2023-05-16T07:05:15;4.40;;;1.37;;
11125;SDS011;5617;54.046;10.676;2023-05-16T07:07:23;4.13;;;1.40;;
11125;SDS011;5617;54.046;10.676;2023-05-16T07:09:31;4.97;;;1.53;;
11125;SDS011;5617;54.046;10.676;2023-05-16T07:11:39;5.77;;;1.20;;
11125;SDS011;5617;54.046;10.676;2023-05-16T07:13:47;7.87;;;1.50;;
11125;SDS011;5617;54.046;10.676;2023-05-16T07:15:55;7.10;;;1.63;;
11125;SDS011;5617;54.046;10.676;2023-05-16T07:18:02;4.10;;;1.40;;
11125;SDS011;5617;54.046;10.676;2023-05-16T07:20:10;3.73;;;1.40;;
11125;SDS011;5617;54.046;10.676;2023-05-16T07:22:21;5.73;;;0.90;;
11125;SDS011;5617;54.046;10.676;2023-05-16T07:24:29;7.33;;;1.40;;
11125;SDS011;5617;54.046;10.676;2023-05-16T07:26:37;4.93;;;1.50;;
11125;SDS011;5617;54.046;10.676;2023-05-16T07:28:44;5.37;;;1.10;;
11125;SDS011;5617;54.046;10.676;2023-05-16T07:30:52;5.30;;;1.10;;
11125;SDS011;5617;54.046;10.676;2023-05-16T07:33:03;3.50;;;1.20;;
11125;SDS011;5617;54.046;10.676;2023-05-16T07:35:11;5.77;;;1.60;;
11125;SDS011;5617;54.046;10.676;2023-05-16T07:37:20;5.93;;;1.43;;
11125;SDS011;5617;54.046;10.676;2023-05-16T07:39:28;6.63;;;1.60;;
11125;SDS011;5617;54.046;10.676;2023-05-16T07:41:35;6.77;;;1.40;;
11125;SDS011;5617;54.046;10.676;2023-05-16T07:43:43;7.00;;;1.40;;
11125;SDS011;5617;54.046;10.676;2023-05-16T07:45:51;5.57;;;1.13;;
11125;SDS011;5617;54.046;10.676;2023-05-16T07:47:59;2.27;;;1.03;;
11125;SDS011;5617;54.046;10.676;2023-05-16T07:50:07;6.90;;;1.50;;
11125;SDS011;5617;54.046;10.676;2023-05-16T07:52:15;5.43;;;1.27;;
11125;SDS011;5617;54.046;10.676;2023-05-16T07:54:24;4.30;;;1.40;;
11125;SDS011;5617;54.046;10.676;2023-05-16T07:56:32;5.27;;;1.33;;
11125;SDS011;5617;54.046;10.676;2023-05-16T07:58:40;6.00;;;1.10;;
11125;SDS011;5617;54.046;10.676;2023-05-16T08:00:48;5.03;;;1.20;;
11125;SDS011;5617;54.046;10.676;2023-05-16T08:02:56;6.13;;;1.70;;
11125;SDS011;5617;54.046;10.676;2023-05-16T08:05:04;6.37;;;1.30;;
11125;SDS011;5617;54.046;10.676;2023-05-16T08:07:12;4.57;;;1.17;;
11125;SDS011;5617;54.046;10.676;2023-05-16T08:09:20;3.87;;;1.43;;
11125;SDS011;5617;54.046;10.676;2023-05-16T08:11:29;8.23;;;1.47;;
11125;SDS011;5617;54.046;10.676;2023-05-16T08:13:37;4.80;;;1.20;;
11125;SDS011;5617;54.046;10.676;2023-05-16T08:15:45;4.67;;;1.03;;
11125;SDS011;5617;54.046;10.676;2023-05-16T08:17:53;3.90;;;1.20;;
11125;SDS011;5617;54.046;10.676;2023-05-16T08:20:03;5.83;;;1.27;;
11125;SDS011;5617;54.046;10.676;2023-05-16T08:22:12;5.20;;;1.50;;
11125;SDS011;5617;54.046;10.676;2023-05-16T08:24:20;3.63;;;1.07;;
11125;SDS011;5617;54.046;10.676;2023-05-16T08:26:27;2.40;;;0.90;;
11125;SDS011;5617;54.046;10.676;2023-05-16T08:28:37;4.83;;;1.17;;
11125;SDS011;5617;54.046;10.676;2023-05-16T08:30:44;3.17;;;1.00;;
11125;SDS011;5617;54.046;10.676;2023-05-16T08:32:53;6.43;;;1.40;;
11125;SDS011;5617;54.046;10.676;2023-05-16T08:35:01;5.50;;;1.30;;
11125;SDS011;5617;54.046;10.676;2023-05-16T08:37:08;6.07;;;1.50;;
11125;SDS011;5617;54.046;10.676;2023-05-16T08:39:17;3.13;;;1.20;;
11125;SDS011;5617;54.046;10.676;2023-05-16T08:41:24;3.57;;;0.90;;
11125;SDS011;5617;54.046;10.676;2023-05-16T08:43:33;6.80;;;1.23;;
11125;SDS011;5617;54.046;10.676;2023-05-16T08:45:41;5.17;;;1.13;;
11125;SDS011;5617;54.046;10.676;2023-05-16T08:47:49;5.00;;;1.07;;
11125;SDS011;5617;54.046;10.676;2023-05-16T08:50:01;3.00;;;0.93;;
11125;SDS011;5617;54.046;10.676;2023-05-16T08:52:10;4.00;;;1.30;;
11125;SDS011;5617;54.046;10.676;2023-05-16T08:54:19;3.17;;;1.00;;
11125;SDS011;5617;54.046;10.676;2023-05-16T08:56:27;3.90;;;1.00;;
11125;SDS011;5617;54.046;10.676;2023-05-16T08:58:37;3.30;;;0.90;;
11125;SDS011;5617;54.046;10.676;2023-05-16T09:00:46;7.80;;;1.23;;
11125;SDS011;5617;54.046;10.676;2023-05-16T09:02:54;4.70;;;0.90;;
11125;SDS011;5617;54.046;10.676;2023-05-16T09:05:02;4.00;;;1.13;;
11125;SDS011;5617;54.046;10.676;2023-05-16T09:07:11;3.23;;;1.10;;
11125;SDS011;5617;54.046;10.676;2023-05-16T09:09:19;3.80;;;1.20;;
11125;SDS011;5617;54.046;10.676;2023-05-16T09:11:27;5.83;;;1.43;;
11125;SDS011;5617;54.046;10.676;2023-05-16T09:13:37;5.00;;;1.20;;
11125;SDS011;5617;54.046;10.676;2023-05-16T09:15:45;3.87;;;1.10;;
11125;SDS011;5617;54.046;10.676;2023-05-16T09:18:17;2.57;;;1.20;;
11125;SDS011;5617;54.046;10.676;2023-05-16T09:20:28;4.27;;;1.10;;
11125;SDS011;5617;54.046;10.676;2023-05-16T09:22:36;2.80;;;0.90;;
11125;SDS011;5617;54.046;10.676;2023-05-16T09:24:44;2.70;;;0.80;;
11125;SDS011;5617;54.046;10.676;2023-05-16T09:26:52;2.47;;;1.00;;
11125;SDS011;5617;54.046;10.676;2023-05-16T09:29:01;2.97;;;0.97;;
11125;SDS011;5617;54.046;10.676;2023-05-16T09:31:20;1.73;;;1.00;;
11125;SDS011;5617;54.046;10.676;2023-05-16T09:33:31;2.80;;;0.90;;
11125;SDS011;5617;54.046;10.676;2023-05-16T09:35:39;3.80;;;0.97;;
11125;SDS011;5617;54.046;10.676;2023-05-16T09:37:52;5.83;;;1.00;;
11125;SDS011;5617;54.046;10.676;2023-05-16T09:39:59;4.53;;;0.87;;
11125;SDS011;5617;54.046;10.676;2023-05-16T09:42:10;3.60;;;1.00;;
11125;SDS011;5617;54.046;10.676;2023-05-16T09:44:19;5.67;;;1.00;;
11125;SDS011;5617;54.046;10.676;2023-05-16T09:46:28;3.63;;;1.20;;
11125;SDS011;5617;54.046;10.676;2023-05-16T09:48:36;3.30;;;1.07;;
11125;SDS011;5617;54.046;10.676;2023-05-16T09:50:49;8.00;;;1.40;;
11125;SDS011;5617;54.046;10.676;2023-05-16T09:52:58;4.00;;;1.00;;
11125;SDS011;5617;54.046;10.676;2023-05-16T09:55:07;5.40;;;1.20;;
11125;SDS011;5617;54.046;10.676;2023-05-16T09:57:16;6.47;;;1.37;;
11125;SDS011;5617;54.046;10.676;2023-05-16T09:59:27;3.30;;;1.00;;
11125;SDS011;5617;54.046;10.676;2023-05-16T10:01:34;4.83;;;1.40;;
11125;SDS011;5617;54.046;10.676;2023-05-16T10:03:42;4.57;;;1.00;;
11125;SDS011;5617;54.046;10.676;2023-05-16T10:05:50;3.90;;;1.03;;
11125;SDS011;5617;54.046;10.676;2023-05-16T10:07:58;3.97;;;1.17;;
11125;SDS011;5617;54.046;10.676;2023-05-16T10:10:08;5.60;;;1.33;;
11125;SDS011;5617;54.046;10.676;2023-05-16T10:12:18;5.67;;;0.97;;
11125;SDS011;5617;54.046;10.676;2023-05-16T10:14:32;2.63;;;0.93;;
11125;SDS011;5617;54.046;10.676;2023-05-16T10:16:42;2.90;;;0.90;;
11125;SDS011;5617;54.046;10.676;2023-05-16T10:18:52;2.40;;;1.03;;
11125;SDS011;5617;54.046;10.676;2023-05-16T10:21:02;2.43;;;0.80;;
11125;SDS011;5617;54.046;10.676;2023-05-16T10:23:14;3.50;;;1.00;;
11125;SDS011;5617;54.046;10.676;2023-05-16T10:25:25;3.13;;;1.00;;
11125;SDS011;5617;54.046;10.676;2023-05-16T10:27:35;1.87;;;0.93;;
11125;SDS011;5617;54.046;10.676;2023-05-16T10:29:46;4.33;;;0.93;;
11125;SDS011;5617;54.046;10.676;2023-05-16T10:32:01;2.47;;;1.10;;
11125;SDS011;5617;54.046;10.676;2023-05-16T10:34:11;2.97;;;1.10;;
11125;SDS011;5617;54.046;10.676;2023-05-16T10:36:19;2.50;;;1.03;;
11125;SDS011;5617;54.046;10.676;2023-05-16T10:38:28;2.67;;;1.07;;
11125;SDS011;5617;54.046;10.676;2023-05-16T10:40:36;3.50;;;1.00;;
11125;SDS011;5617;54.046;10.676;2023-05-16T10:42:53;3.30;;;1.13;;
11125;SDS011;5617;54.046;10.676;2023-05-16T10:45:09;5.47;;;1.30;;
11125;SDS011;5617;54.046;10.676;2023-05-16T10:47:24;4.60;;;1.20;;
11125;SDS011;5617;54.046;10.676;2023-05-16T10:49:31;3.90;;;1.30;;
11125;SDS011;5617;54.046;10.676;2023-05-16T10:51:39;3.87;;;1.20;;
11125;SDS011;5617;54.046;10.676;2023-05-16T10:53:47;4.70;;;1.30;;
11125;SDS011;5617;54.046;10.676;2023-05-16T10:56:05;3.67;;;0.97;;
11125;SDS011;5617;54.046;10.676;2023-05-16T10:58:17;6.10;;;1.40;;
11125;SDS011;5617;54.046;10.676;2023-05-16T11:00:30;4.13;;;1.23;;
11125;SDS011;5617;54.046;10.676;2023-05-16T11:02:39;5.97;;;1.07;;
11125;SDS011;5617;54.046;10.676;2023-05-16T11:04:48;3.77;;;1.10;;
11125;SDS011;5617;54.046;10.676;2023-05-16T11:06:56;5.13;;;1.20;;
11125;SDS011;5617;54.046;10.676;2023-05-16T11:09:05;5.67;;;1.20;;
11125;SDS011;5617;54.046;10.676;2023-05-16T11:13:52;4.77;;;1.00;;
11125;SDS011;5617;54.046;10.676;2023-05-16T11:18:35;3.87;;;1.07;;
11125;SDS011;5617;54.046;10.676;2023-05-16T11:21:01;2.70;;;1.00;;
11125;SDS011;5617;54.046;10.676;2023-05-16T11:23:17;4.37;;;1.03;;
11125;SDS011;5617;54.046;10.676;2023-05-16T11:25:34;3.60;;;0.83;;
11125;SDS011;5617;54.046;10.676;2023-05-16T11:27:44;3.90;;;1.33;;
11125;SDS011;5617;54.046;10.676;2023-05-16T11:29:53;3.67;;;1.30;;
11125;SDS011;5617;54.046;10.676;2023-05-16T11:32:09;2.37;;;1.10;;
11125;SDS011;5617;54.046;10.676;2023-05-16T11:34:17;4.77;;;1.13;;
11125;SDS011;5617;54.046;10.676;2023-05-16T11:36:25;6.87;;;1.20;;
11125;SDS011;5617;54.046;10.676;2023-05-16T11:38:37;5.97;;;1.37;;
11125;SDS011;5617;54.046;10.676;2023-05-16T11:40:48;5.43;;;1.40;;
11125;SDS011;5617;54.046;10.676;2023-05-16T11:42:59;4.63;;;1.40;;
11125;SDS011;5617;54.046;10.676;2023-05-16T11:45:14;6.77;;;1.33;;
11125;SDS011;5617;54.046;10.676;2023-05-16T11:47:24;5.87;;;1.33;;
11125;SDS011;5617;54.046;10.676;2023-05-16T11:49:32;5.97;;;1.03;;
11125;SDS011;5617;54.046;10.676;2023-05-16T11:51:40;6.27;;;1.10;;
11125;SDS011;5617;54.046;10.676;2023-05-16T11:53:48;5.30;;;1.27;;
11125;SDS011;5617;54.046;10.676;2023-05-16T11:55:57;2.17;;;0.93;;
11125;SDS011;5617;54.046;10.676;2023-05-16T11:58:08;11.17;;;1.33;;
11125;SDS011;5617;54.046;10.676;2023-05-16T12:00:17;2.43;;;0.80;;
11125;SDS011;5617;54.046;10.676;2023-05-16T12:02:28;4.03;;;1.10;;
11125;SDS011;5617;54.046;10.676;2023-05-16T12:04:37;6.73;;;1.60;;
11125;SDS011;5617;54.046;10.676;2023-05-16T12:06:56;5.20;;;1.00;;
11125;SDS011;5617;54.046;10.676;2023-05-16T12:09:05;3.50;;;1.10;;
11125;SDS011;5617;54.046;10.676;2023-05-16T12:11:17;2.77;;;1.07;;
11125;SDS011;5617;54.046;10.676;2023-05-16T12:13:26;2.90;;;0.93;;
11125;SDS011;5617;54.046;10.676;2023-05-16T12:15:34;4.20;;;1.10;;
11125;SDS011;5617;54.046;10.676;2023-05-16T12:17:44;2.90;;;1.30;;
11125;SDS011;5617;54.046;10.676;2023-05-16T12:19:53;4.97;;;1.20;;
11125;SDS011;5617;54.046;10.676;2023-05-16T12:22:01;4.23;;;1.10;;
11125;SDS011;5617;54.046;10.676;2023-05-16T12:24:09;4.33;;;1.20;;
11125;SDS011;5617;54.046;10.676;2023-05-16T12:26:22;4.17;;;1.00;;
11125;SDS011;5617;54.046;10.676;2023-05-16T12:28:32;3.30;;;1.00;;
11125;SDS011;5617;54.046;10.676;2023-05-16T12:30:41;4.73;;;0.97;;
11125;SDS011;5617;54.046;10.676;2023-05-16T12:32:53;3.77;;;1.07;;
11125;SDS011;5617;54.046;10.676;2023-05-16T12:35:03;4.47;;;1.23;;
11125;SDS011;5617;54.046;10.676;2023-05-16T12:37:11;3.60;;;0.97;;
11125;SDS011;5617;54.046;10.676;2023-05-16T12:39:19;3.87;;;1.20;;
11125;SDS011;5617;54.046;10.676;2023-05-16T12:41:28;2.93;;;1.30;;
11125;SDS011;5617;54.046;10.676;2023-05-16T12:43:37;5.93;;;1.20;;
11125;SDS011;5617;54.046;10.676;2023-05-16T12:45:48;2.73;;;0.70;;
11125;SDS011;5617;54.046;10.676;2023-05-16T12:48:00;4.17;;;0.90;;
11125;SDS011;5617;54.046;10.676;2023-05-16T12:50:10;4.93;;;1.10;;
11125;SDS011;5617;54.046;10.676;2023-05-16T12:52:20;7.63;;;1.53;;
11125;SDS011;5617;54.046;10.676;2023-05-16T12:54:27;3.00;;;1.20;;
11125;SDS011;5617;54.046;10.676;2023-05-16T12:56:36;2.40;;;0.70;;
11125;SDS011;5617;54.046;10.676;2023-05-16T12:58:44;5.63;;;0.93;;
11125;SDS011;5617;54.046;10.676;2023-05-16T13:00:52;4.87;;;1.00;;
11125;SDS011;5617;54.046;10.676;2023-05-16T13:03:01;2.67;;;0.80;;
11125;SDS011;5617;54.046;10.676;2023-05-16T13:05:09;3.70;;;1.00;;
11125;SDS011;5617;54.046;10.676;2023-05-16T13:07:17;1.90;;;1.20;;